createdAt,value
2019-05-19T00:04:06.937Z,5.03
2019-05-19T00:08:23.440Z,5.63
2019-05-19T00:12:39.875Z,4.90
2019-05-19T00:16:56.356Z,6.90
2019-05-19T00:21:13.196Z,9.37
2019-05-19T00:25:29.757Z,6.50
2019-05-19T00:29:46.192Z,5.00
2019-05-19T00:34:02.825Z,5.57
2019-05-19T00:38:19.257Z,6.30
2019-05-19T00:42:35.864Z,6.00
2019-05-19T00:46:52.399Z,5.80
2019-05-19T00:51:09.325Z,5.13
2019-05-19T00:55:26.174Z,6.07
2019-05-19T00:59:43.318Z,5.70
2019-05-19T01:03:59.752Z,5.73
2019-05-19T01:08:16.265Z,5.40
2019-05-19T01:12:33.004Z,5.87
2019-05-19T01:16:49.531Z,6.63
2019-05-19T01:21:06.082Z,5.40
2019-05-19T01:25:22.613Z,5.90
2019-05-19T01:29:39.155Z,5.40
2019-05-19T01:33:55.710Z,6.67
2019-05-19T01:38:12.417Z,6.70
2019-05-19T01:42:28.855Z,5.93
2019-05-19T01:46:45.454Z,5.73
2019-05-19T01:51:02.284Z,5.80
2019-05-19T01:55:18.725Z,6.83
2019-05-19T01:59:35.277Z,7.23
2019-05-19T02:03:51.706Z,6.13
2019-05-19T02:08:09.739Z,6.50
2019-05-19T02:12:26.399Z,7.63
2019-05-19T02:16:42.859Z,9.43
2019-05-19T02:20:59.298Z,8.87
2019-05-19T02:25:17.579Z,7.70
2019-05-19T02:29:34.297Z,7.53
2019-05-19T02:33:50.819Z,7.03
2019-05-19T02:38:07.241Z,5.93
2019-05-19T02:42:26.979Z,5.93
2019-05-19T02:46:44.801Z,8.27
2019-05-19T02:51:03.472Z,7.80
2019-05-19T02:55:20.733Z,6.17
2019-05-19T02:59:37.972Z,6.67
2019-05-19T03:03:54.533Z,6.77
2019-05-19T03:08:10.984Z,7.20
2019-05-19T03:12:27.426Z,12.00
2019-05-19T03:16:44.000Z,9.63
2019-05-19T03:21:10.358Z,9.33
2019-05-19T03:25:18.909Z,10.07
2019-05-19T03:29:37.221Z,8.70
2019-05-19T03:33:55.589Z,8.00
2019-05-19T03:38:12.017Z,7.57
2019-05-19T03:42:28.457Z,7.23
2019-05-19T03:46:44.988Z,7.47
2019-05-19T03:51:01.518Z,7.27
2019-05-19T03:55:18.145Z,7.10
2019-05-19T03:59:34.937Z,6.90
2019-05-19T04:03:51.415Z,6.50
2019-05-19T04:08:08.585Z,7.30
2019-05-19T04:12:25.109Z,7.63
2019-05-19T04:16:41.562Z,8.73
2019-05-19T04:20:58.046Z,7.90
2019-05-19T04:25:14.708Z,7.37
2019-05-19T04:29:31.134Z,7.03
2019-05-19T04:33:47.694Z,8.13
2019-05-19T04:38:04.138Z,7.03
2019-05-19T04:42:20.685Z,6.83
2019-05-19T04:46:37.141Z,7.23
2019-05-19T04:50:53.590Z,10.13
2019-05-19T04:55:10.666Z,8.30
2019-05-19T04:59:27.097Z,9.00
2019-05-19T05:03:43.551Z,12.23
2019-05-19T05:08:02.624Z,6.97
2019-05-19T05:12:19.072Z,9.83
2019-05-19T05:16:35.598Z,8.77
2019-05-19T05:20:52.153Z,7.90
2019-05-19T05:25:09.466Z,10.87
2019-05-19T05:29:25.989Z,7.67
2019-05-19T05:33:42.473Z,6.03
2019-05-19T05:37:59.003Z,7.20
2019-05-19T05:42:15.561Z,7.30
2019-05-19T05:46:32.039Z,10.63
2019-05-19T05:50:48.485Z,21.90
2019-05-19T05:55:05.482Z,21.43
2019-05-19T05:59:21.995Z,15.37
2019-05-19T06:03:38.490Z,22.80
2019-05-19T06:07:55.015Z,14.67
2019-05-19T06:12:11.553Z,16.47
2019-05-19T06:16:29.343Z,19.03
2019-05-19T06:20:46.027Z,14.70
2019-05-19T06:25:04.593Z,15.43
2019-05-19T06:29:21.088Z,21.57
2019-05-19T06:33:37.708Z,17.67
2019-05-19T06:37:54.263Z,18.10
2019-05-19T06:42:11.047Z,17.73
2019-05-19T06:46:27.569Z,17.10
2019-05-19T06:50:44.123Z,20.57
2019-05-19T06:55:00.838Z,18.27
2019-05-19T06:59:17.737Z,18.33
2019-05-19T07:03:34.235Z,20.93
2019-05-19T07:07:50.740Z,19.10
2019-05-19T07:12:07.474Z,20.70
2019-05-19T07:16:23.917Z,21.83
2019-05-19T07:20:40.663Z,19.27
2019-05-19T07:24:57.180Z,21.47
2019-05-19T07:29:13.767Z,22.17
2019-05-19T07:33:30.559Z,20.87
2019-05-19T07:37:47.393Z,21.20
2019-05-19T07:42:08.047Z,21.63
2019-05-19T07:46:26.492Z,23.60
2019-05-19T07:50:42.933Z,23.20
2019-05-19T07:54:59.470Z,19.40
2019-05-19T07:59:16.433Z,18.00
2019-05-19T08:03:33.804Z,15.67
2019-05-19T08:07:50.581Z,17.37
2019-05-19T08:12:07.256Z,18.47
2019-05-19T08:16:23.842Z,15.63
2019-05-19T08:20:40.364Z,15.50
2019-05-19T08:24:56.932Z,15.30
2019-05-19T08:29:13.767Z,14.33
2019-05-19T08:33:30.348Z,15.43
2019-05-19T08:37:47.093Z,15.33
2019-05-19T08:42:04.038Z,14.50
2019-05-19T08:46:20.890Z,12.57
2019-05-19T08:50:37.506Z,13.27
2019-05-19T08:54:53.950Z,17.00
2019-05-19T08:59:10.516Z,15.60
2019-05-19T09:03:27.119Z,14.97
2019-05-19T09:07:43.908Z,15.60
2019-05-19T09:12:01.239Z,13.87
2019-05-19T09:16:17.766Z,13.90
2019-05-19T09:20:34.550Z,14.17
2019-05-19T09:24:51.453Z,13.07
2019-05-19T09:29:08.950Z,14.20
2019-05-19T09:33:25.452Z,14.83
2019-05-19T09:37:42.019Z,12.53
2019-05-19T09:41:59.313Z,13.07
2019-05-19T09:46:15.863Z,10.87
2019-05-19T09:50:32.697Z,12.17
2019-05-19T09:54:49.495Z,11.87
2019-05-19T09:59:06.323Z,10.73
2019-05-19T10:03:22.843Z,12.00
2019-05-19T10:07:39.356Z,11.93
2019-05-19T10:12:08.064Z,10.73
2019-05-19T10:16:24.584Z,11.40
2019-05-19T10:20:41.513Z,12.23
2019-05-19T10:25:19.933Z,10.63
2019-05-19T10:29:16.588Z,9.57
2019-05-19T10:33:33.408Z,10.00
2019-05-19T10:37:50.063Z,8.80
2019-05-19T10:42:06.966Z,8.10
2019-05-19T10:46:23.485Z,11.83
2019-05-19T10:50:39.989Z,11.03
2019-05-19T10:54:57.385Z,9.07
2019-05-19T10:59:13.939Z,9.63
2019-05-19T11:03:30.484Z,9.73
2019-05-19T11:07:47.331Z,9.63
2019-05-19T11:12:04.433Z,8.50
2019-05-19T11:16:20.905Z,9.53
2019-05-19T11:20:37.407Z,10.20
2019-05-19T11:24:53.939Z,8.50
2019-05-19T11:29:11.072Z,8.83
2019-05-19T11:33:27.667Z,10.70
2019-05-19T11:37:44.527Z,10.83
2019-05-19T11:42:02.111Z,11.00
2019-05-19T11:46:18.686Z,11.53
2019-05-19T11:50:35.202Z,9.77
2019-05-19T11:54:51.721Z,10.80
2019-05-19T11:59:08.848Z,11.50
2019-05-19T12:03:25.374Z,10.23
2019-05-19T12:07:41.984Z,9.30
2019-05-19T12:11:58.586Z,10.18
2019-05-19T12:16:15.209Z,9.80
2019-05-19T12:20:31.721Z,11.15
2019-05-19T12:24:48.223Z,10.15
2019-05-19T12:29:04.742Z,9.53
2019-05-19T12:33:21.304Z,9.60
2019-05-19T12:37:37.887Z,10.28
2019-05-19T12:41:54.361Z,9.45
2019-05-19T12:46:16.417Z,9.25
2019-05-19T12:50:29.500Z,9.03
2019-05-19T12:54:46.125Z,6.53
2019-05-19T12:59:02.806Z,6.20
2019-05-19T13:03:19.651Z,5.87
2019-05-19T13:07:36.160Z,5.37
2019-05-19T13:11:52.645Z,5.83
2019-05-19T13:16:09.185Z,4.70
2019-05-19T13:20:25.695Z,5.05
2019-05-19T13:24:42.232Z,5.45
2019-05-19T13:28:58.697Z,4.80
2019-05-19T13:33:17.165Z,4.42
2019-05-19T13:37:33.962Z,4.28
2019-05-19T13:41:50.381Z,5.80
2019-05-19T13:46:07.267Z,5.28
2019-05-19T13:50:23.864Z,5.22
2019-05-19T13:54:40.397Z,5.80
2019-05-19T13:58:57.354Z,5.62
2019-05-19T14:03:13.954Z,5.30
2019-05-19T14:07:30.729Z,4.67
2019-05-19T14:11:47.681Z,4.92
2019-05-19T14:16:04.183Z,5.17
2019-05-19T14:20:20.705Z,5.30
2019-05-19T14:24:37.630Z,4.35
2019-05-19T14:28:54.238Z,4.03
2019-05-19T14:33:10.996Z,5.10
2019-05-19T14:37:27.685Z,5.22
2019-05-19T14:41:46.224Z,6.25
2019-05-19T14:46:02.965Z,7.12
2019-05-19T14:50:19.685Z,8.03
2019-05-19T14:54:36.319Z,7.85
2019-05-19T14:58:52.811Z,7.97
2019-05-19T15:03:09.340Z,7.30
2019-05-19T15:07:26.000Z,7.17
2019-05-19T15:11:42.806Z,7.28
2019-05-19T15:15:59.678Z,7.53
2019-05-19T15:20:17.110Z,6.60
2019-05-19T15:24:33.627Z,5.78
2019-05-19T15:28:50.180Z,6.50
2019-05-19T15:33:06.689Z,7.45
2019-05-19T15:37:23.238Z,7.37
2019-05-19T15:41:39.758Z,6.72
2019-05-19T15:45:56.700Z,6.15
2019-05-19T15:50:14.514Z,7.15
2019-05-19T15:54:31.029Z,7.70
2019-05-19T15:58:47.891Z,6.12
2019-05-19T16:03:04.608Z,5.87
2019-05-19T16:07:21.178Z,7.60
2019-05-19T16:11:37.680Z,7.13
2019-05-19T16:15:54.826Z,6.67
2019-05-19T16:20:11.972Z,6.30
2019-05-19T16:24:28.903Z,5.90
2019-05-19T16:28:45.381Z,7.57
2019-05-19T16:33:02.247Z,8.00
2019-05-19T16:37:19.117Z,6.30
2019-05-19T16:41:35.739Z,5.27
2019-05-19T16:45:52.302Z,4.43
2019-05-19T16:50:10.049Z,4.80
2019-05-19T16:54:28.494Z,4.00
2019-05-19T16:58:45.882Z,3.80
2019-05-19T17:03:03.576Z,4.33
2019-05-19T17:07:20.083Z,3.90
2019-05-19T17:11:36.681Z,4.17
2019-05-19T17:15:53.209Z,3.77
2019-05-19T17:20:11.771Z,3.40
2019-05-19T17:24:28.297Z,4.00
2019-05-19T17:28:59.604Z,4.13
2019-05-19T17:33:04.691Z,4.77
2019-05-19T17:37:23.943Z,3.83
2019-05-19T17:41:40.523Z,3.80
2019-05-19T17:45:57.412Z,3.63
2019-05-19T17:50:18.144Z,3.77
2019-05-19T17:54:34.945Z,3.07
2019-05-19T17:59:16.260Z,3.30
2019-05-19T18:03:25.199Z,2.70
2019-05-19T18:07:42.590Z,2.37
2019-05-19T18:11:59.734Z,2.67
2019-05-19T18:16:17.735Z,2.90
2019-05-19T18:20:34.338Z,3.10
2019-05-19T18:24:50.847Z,3.00
2019-05-19T18:29:09.625Z,3.67
2019-05-19T18:33:27.754Z,3.43
2019-05-19T18:37:45.424Z,3.50
2019-05-19T18:42:03.939Z,3.60
2019-05-19T18:46:21.613Z,3.93
2019-05-19T18:50:38.146Z,4.43
2019-05-19T18:55:00.726Z,4.33
2019-05-19T18:59:19.340Z,5.37
2019-05-19T19:03:36.412Z,4.80
2019-05-19T19:07:56.287Z,5.63
2019-05-19T19:12:13.253Z,5.40
2019-05-19T19:16:31.162Z,4.73
2019-05-19T19:20:50.205Z,4.37
2019-05-19T19:25:08.040Z,4.70
2019-05-19T19:29:24.822Z,5.10
2019-05-19T19:33:42.600Z,4.57
2019-05-19T19:38:00.220Z,5.10
2019-05-19T19:42:18.122Z,5.83
2019-05-19T19:46:34.712Z,6.60
2019-05-19T19:50:52.793Z,6.17
2019-05-19T19:55:11.094Z,6.40
2019-05-19T19:59:30.285Z,5.13
2019-05-19T20:03:47.269Z,4.90
2019-05-19T20:08:05.292Z,3.87
2019-05-19T20:12:23.368Z,4.67
2019-05-19T20:16:40.294Z,4.70
2019-05-19T20:20:58.242Z,4.23
2019-05-19T20:25:14.824Z,4.23
2019-05-19T20:29:31.391Z,4.03
2019-05-19T20:33:48.214Z,4.90
2019-05-19T20:38:04.806Z,4.63
2019-05-19T20:42:21.327Z,4.80
2019-05-19T20:46:37.950Z,4.57
2019-05-19T20:50:54.571Z,5.17
2019-05-19T20:55:11.284Z,5.60
2019-05-19T20:59:28.106Z,5.00
2019-05-19T21:03:44.586Z,4.17
2019-05-19T21:08:01.259Z,5.17
2019-05-19T21:12:17.792Z,7.10
2019-05-19T21:16:34.247Z,6.00
2019-05-19T21:20:50.756Z,7.00
2019-05-19T21:25:07.923Z,6.50
2019-05-19T21:29:24.358Z,7.20
2019-05-19T21:33:40.821Z,6.20
2019-05-19T21:37:57.530Z,6.37
2019-05-19T21:42:14.074Z,6.83
2019-05-19T21:46:30.539Z,6.80
2019-05-19T21:50:47.315Z,6.63
2019-05-19T21:55:07.171Z,7.13
2019-05-19T21:59:23.631Z,9.33
2019-05-19T22:03:40.424Z,6.70
2019-05-19T22:07:56.847Z,6.43
2019-05-19T22:12:13.447Z,6.23
2019-05-19T22:16:29.862Z,7.13
2019-05-19T22:20:46.346Z,8.20
2019-05-19T22:25:05.705Z,9.33
2019-05-19T22:29:22.167Z,7.73
2019-05-19T22:33:38.858Z,8.30
2019-05-19T22:37:55.637Z,8.47
2019-05-19T22:42:12.175Z,6.47
2019-05-19T22:46:28.616Z,5.63
2019-05-19T22:50:45.200Z,5.73
2019-05-19T22:55:06.173Z,5.17
2019-05-19T22:59:22.976Z,6.70
2019-05-19T23:03:39.405Z,6.03
2019-05-19T23:07:55.988Z,7.30
2019-05-19T23:12:12.599Z,6.93
2019-05-19T23:16:29.163Z,7.23
2019-05-19T23:20:45.598Z,9.10
2019-05-19T23:25:04.618Z,7.77
2019-05-19T23:29:21.102Z,6.40
2019-05-19T23:33:37.594Z,7.07
2019-05-19T23:37:54.038Z,5.80
2019-05-19T23:42:10.485Z,5.07
2019-05-19T23:46:26.923Z,7.10
2019-05-19T23:50:43.480Z,5.90
2019-05-19T23:55:00.408Z,5.53
2019-05-19T23:59:16.976Z,5.30
